createdAt,value
2019-05-18T00:02:13.749Z,2.12
2019-05-18T00:04:42.171Z,1.80
2019-05-18T00:07:10.474Z,2.45
2019-05-18T00:09:38.762Z,2.27
2019-05-18T00:12:07.209Z,1.87
2019-05-18T00:14:35.641Z,2.72
2019-05-18T00:17:04.002Z,1.87
2019-05-18T00:19:32.368Z,2.08
2019-05-18T00:22:00.645Z,2.10
2019-05-18T00:24:29.117Z,1.98
2019-05-18T00:26:57.540Z,2.40
2019-05-18T00:29:25.997Z,2.02
2019-05-18T00:31:54.366Z,1.80
2019-05-18T00:34:22.650Z,2.47
2019-05-18T00:36:51.113Z,2.15
2019-05-18T00:39:19.539Z,2.05
2019-05-18T00:41:47.821Z,2.00
2019-05-18T00:44:16.170Z,2.15
2019-05-18T00:46:44.542Z,2.00
2019-05-18T00:49:12.886Z,2.15
2019-05-18T00:51:41.322Z,2.10
2019-05-18T00:54:09.629Z,1.90
2019-05-18T00:56:38.033Z,2.40
2019-05-18T00:59:06.481Z,2.55
2019-05-18T01:01:34.706Z,2.00
2019-05-18T01:04:03.145Z,2.00
2019-05-18T01:06:31.565Z,2.10
2019-05-18T01:08:59.999Z,1.95
2019-05-18T01:11:28.351Z,1.87
2019-05-18T01:13:57.534Z,2.00
2019-05-18T01:16:25.921Z,1.92
2019-05-18T01:18:54.164Z,1.80
2019-05-18T01:21:22.517Z,2.20
2019-05-18T01:23:50.992Z,3.92
2019-05-18T01:26:19.338Z,2.50
2019-05-18T01:28:47.752Z,2.80
2019-05-18T01:31:16.194Z,2.47
2019-05-18T01:33:44.651Z,2.47
2019-05-18T01:36:12.925Z,3.40
2019-05-18T01:38:41.208Z,2.95
2019-05-18T01:41:09.597Z,2.60
2019-05-18T01:43:37.958Z,2.72
2019-05-18T01:46:06.349Z,2.27
2019-05-18T01:48:34.725Z,1.90
2019-05-18T01:51:03.113Z,2.00
2019-05-18T01:53:31.545Z,1.70
2019-05-18T01:55:59.962Z,1.67
2019-05-18T01:58:28.251Z,2.00
2019-05-18T02:00:56.673Z,2.35
2019-05-18T02:03:26.051Z,2.50
2019-05-18T02:05:54.358Z,1.98
2019-05-18T02:08:22.816Z,1.80
2019-05-18T02:10:51.181Z,1.70
2019-05-18T02:13:19.608Z,1.92
2019-05-18T02:15:48.074Z,1.52
2019-05-18T02:18:28.180Z,2.27
2019-05-18T02:20:46.529Z,7.75
2019-05-18T02:23:14.822Z,6.03
2019-05-18T02:25:43.486Z,3.47
2019-05-18T02:28:11.845Z,2.55
2019-05-18T02:30:40.219Z,2.37
2019-05-18T02:33:08.711Z,1.72
2019-05-18T02:35:37.050Z,2.10
2019-05-18T02:38:18.352Z,2.27
2019-05-18T02:40:47.574Z,1.80
2019-05-18T02:43:16.246Z,1.85
2019-05-18T02:45:44.577Z,2.30
2019-05-18T02:48:12.934Z,2.30
2019-05-18T02:50:41.214Z,1.80
2019-05-18T02:53:09.643Z,2.33
2019-05-18T02:55:37.993Z,1.98
2019-05-18T02:58:06.435Z,1.80
2019-05-18T03:00:34.888Z,2.37
2019-05-18T03:03:03.255Z,1.62
2019-05-18T03:05:31.678Z,1.80
2019-05-18T03:08:00.102Z,1.75
2019-05-18T03:10:28.531Z,1.50
2019-05-18T03:12:56.993Z,1.95
2019-05-18T03:15:25.535Z,1.90
2019-05-18T03:17:53.951Z,1.85
2019-05-18T03:20:22.302Z,1.80
2019-05-18T03:22:50.661Z,1.80
2019-05-18T03:25:19.010Z,1.70
2019-05-18T03:27:47.358Z,1.98
2019-05-18T03:30:15.827Z,1.52
2019-05-18T03:32:44.182Z,1.80
2019-05-18T03:35:12.552Z,2.00
2019-05-18T03:37:40.827Z,1.80
2019-05-18T03:40:09.254Z,1.50
2019-05-18T03:42:37.718Z,2.27
2019-05-18T03:45:06.345Z,1.90
2019-05-18T03:47:34.806Z,1.70
2019-05-18T03:50:03.738Z,2.08
2019-05-18T03:52:32.026Z,1.98
2019-05-18T03:55:00.321Z,1.85
2019-05-18T03:57:28.754Z,1.80
2019-05-18T03:59:57.045Z,2.10
2019-05-18T04:02:25.402Z,3.10
2019-05-18T04:04:53.857Z,3.70
2019-05-18T04:07:22.290Z,3.25
2019-05-18T04:09:50.653Z,2.12
2019-05-18T04:12:19.014Z,2.37
2019-05-18T04:14:47.372Z,2.20
2019-05-18T04:17:15.754Z,2.17
2019-05-18T04:19:46.757Z,2.22
2019-05-18T04:22:14.042Z,1.70
2019-05-18T04:24:42.408Z,2.00
2019-05-18T04:27:10.770Z,2.20
2019-05-18T04:29:39.125Z,2.00
2019-05-18T04:32:07.408Z,2.08
2019-05-18T04:34:35.800Z,1.90
2019-05-18T04:37:04.226Z,2.12
2019-05-18T04:39:32.619Z,2.72
2019-05-18T04:42:00.966Z,2.05
2019-05-18T04:44:29.354Z,1.90
2019-05-18T04:46:57.714Z,1.90
2019-05-18T04:49:26.066Z,1.75
2019-05-18T04:51:54.417Z,1.90
2019-05-18T04:54:22.766Z,1.52
2019-05-18T04:56:51.158Z,1.70
2019-05-18T04:59:19.522Z,1.62
2019-05-18T05:01:47.923Z,1.72
2019-05-18T05:04:16.358Z,1.72
2019-05-18T05:06:44.706Z,1.95
2019-05-18T05:09:13.064Z,1.62
2019-05-18T05:11:41.338Z,2.35
2019-05-18T05:14:09.687Z,1.75
2019-05-18T05:16:38.126Z,2.00
2019-05-18T05:19:08.640Z,1.85
2019-05-18T05:21:36.599Z,1.90
2019-05-18T05:24:04.952Z,1.98
2019-05-18T05:26:33.342Z,1.90
2019-05-18T05:29:01.699Z,1.90
2019-05-18T05:31:30.088Z,1.90
2019-05-18T05:33:58.510Z,2.17
2019-05-18T05:36:26.785Z,1.62
2019-05-18T05:38:55.137Z,1.95
2019-05-18T05:41:23.502Z,2.05
2019-05-18T05:43:51.905Z,2.10
2019-05-18T05:46:20.189Z,1.98
2019-05-18T05:48:48.578Z,2.20
2019-05-18T05:51:17.010Z,2.02
2019-05-18T05:53:45.277Z,2.30
2019-05-18T05:56:13.642Z,2.22
2019-05-18T05:58:41.993Z,1.92
2019-05-18T06:01:10.348Z,2.00
2019-05-18T06:03:38.738Z,2.00
2019-05-18T06:06:07.063Z,2.35
2019-05-18T06:08:36.124Z,2.15
2019-05-18T06:11:05.165Z,2.30
2019-05-18T06:13:33.463Z,2.02
2019-05-18T06:16:01.842Z,2.20
2019-05-18T06:18:30.265Z,2.33
2019-05-18T06:20:58.566Z,2.67
2019-05-18T06:23:26.922Z,2.40
2019-05-18T06:25:55.259Z,2.60
2019-05-18T06:28:23.503Z,3.00
2019-05-18T06:30:51.853Z,2.50
2019-05-18T06:33:20.149Z,2.50
2019-05-18T06:35:48.537Z,2.80
2019-05-18T06:38:16.894Z,2.60
2019-05-18T06:40:45.111Z,2.65
2019-05-18T06:43:13.441Z,2.98
2019-05-18T06:45:41.757Z,2.83
2019-05-18T06:48:10.139Z,2.50
2019-05-18T06:50:38.515Z,2.92
2019-05-18T06:53:06.906Z,2.50
2019-05-18T06:55:35.592Z,2.92
2019-05-18T06:58:03.902Z,3.08
2019-05-18T07:00:32.144Z,2.75
2019-05-18T07:03:00.443Z,2.80
2019-05-18T07:05:28.754Z,2.65
2019-05-18T07:07:57.022Z,3.08
2019-05-18T07:10:25.394Z,3.05
2019-05-18T07:12:53.800Z,2.87
2019-05-18T07:15:22.094Z,3.05
2019-05-18T07:17:50.537Z,2.60
2019-05-18T07:20:19.017Z,2.80
2019-05-18T07:22:47.396Z,2.50
2019-05-18T07:25:15.739Z,2.62
2019-05-18T07:27:44.042Z,2.80
2019-05-18T07:30:12.570Z,3.08
2019-05-18T07:32:40.865Z,3.02
2019-05-18T07:35:09.552Z,3.20
2019-05-18T07:37:37.936Z,2.85
2019-05-18T07:40:07.781Z,2.92
2019-05-18T07:42:36.116Z,2.65
2019-05-18T07:45:05.986Z,2.80
2019-05-18T07:47:34.221Z,3.02
2019-05-18T07:50:02.581Z,3.00
2019-05-18T07:52:30.968Z,3.15
2019-05-18T07:54:59.253Z,3.30
2019-05-18T07:57:27.626Z,2.83
2019-05-18T07:59:55.858Z,2.80
2019-05-18T08:02:24.154Z,2.90
2019-05-18T08:04:52.394Z,3.08
2019-05-18T08:07:20.621Z,3.62
2019-05-18T08:09:49.033Z,3.20
2019-05-18T08:12:17.358Z,3.25
2019-05-18T08:14:45.732Z,3.20
2019-05-18T08:17:14.138Z,3.10
2019-05-18T08:19:42.615Z,3.25
2019-05-18T08:22:11.103Z,3.25
2019-05-18T08:24:39.523Z,3.47
2019-05-18T08:27:07.992Z,3.50
2019-05-18T08:29:36.420Z,2.90
2019-05-18T08:32:04.939Z,3.20
2019-05-18T08:34:33.401Z,3.25
2019-05-18T08:37:01.757Z,3.70
2019-05-18T08:39:30.051Z,3.30
2019-05-18T08:41:58.483Z,3.00
2019-05-18T08:44:26.887Z,2.95
2019-05-18T08:46:55.240Z,3.65
2019-05-18T08:49:23.531Z,3.50
2019-05-18T08:51:51.912Z,3.58
2019-05-18T08:54:20.265Z,3.17
2019-05-18T08:56:48.605Z,3.42
2019-05-18T08:59:16.978Z,3.80
2019-05-18T09:01:45.394Z,3.67
2019-05-18T09:04:13.788Z,3.50
2019-05-18T09:06:42.142Z,3.40
2019-05-18T09:09:10.537Z,3.20
2019-05-18T09:11:38.862Z,3.33
2019-05-18T09:14:07.197Z,3.60
2019-05-18T09:16:35.503Z,3.15
2019-05-18T09:19:03.817Z,3.70
2019-05-18T09:21:32.202Z,3.65
2019-05-18T09:24:00.569Z,3.15
2019-05-18T09:26:28.869Z,3.52
2019-05-18T09:28:57.099Z,3.50
2019-05-18T09:31:25.434Z,3.70
2019-05-18T09:33:53.686Z,3.65
2019-05-18T09:36:21.985Z,3.60
2019-05-18T09:38:50.217Z,3.27
2019-05-18T09:41:18.601Z,3.05
2019-05-18T09:43:47.040Z,2.87
2019-05-18T09:46:15.430Z,3.08
2019-05-18T09:48:43.817Z,3.10
2019-05-18T09:51:12.070Z,3.37
2019-05-18T09:53:50.675Z,3.20
2019-05-18T09:56:10.269Z,3.02
2019-05-18T09:58:38.567Z,3.65
2019-05-18T10:01:06.882Z,3.87
2019-05-18T10:03:35.194Z,3.92
2019-05-18T10:06:03.592Z,4.58
2019-05-18T10:08:31.898Z,3.58
2019-05-18T10:11:00.137Z,4.03
2019-05-18T10:13:29.322Z,2.95
2019-05-18T10:15:57.582Z,3.40
2019-05-18T10:18:25.823Z,3.35
2019-05-18T10:20:54.236Z,3.45
2019-05-18T10:23:22.639Z,3.37
2019-05-18T10:26:27.417Z,3.20
2019-05-18T10:28:55.975Z,3.60
2019-05-18T10:31:24.408Z,3.37
2019-05-18T10:33:52.885Z,3.80
2019-05-18T10:36:21.431Z,3.45
2019-05-18T10:38:49.897Z,3.92
2019-05-18T10:41:18.483Z,3.60
2019-05-18T10:43:47.337Z,3.77
2019-05-18T10:46:15.944Z,3.20
2019-05-18T10:48:44.505Z,3.30
2019-05-18T10:51:48.997Z,3.37
2019-05-18T10:54:17.450Z,3.00
2019-05-18T10:56:46.019Z,3.17
2019-05-18T10:59:14.352Z,3.25
2019-05-18T11:01:44.021Z,3.50
2019-05-18T11:04:12.534Z,3.75
2019-05-18T11:06:41.049Z,3.60
2019-05-18T11:09:09.487Z,3.70
2019-05-18T11:11:37.919Z,3.52
2019-05-18T11:14:06.361Z,4.03
2019-05-18T11:16:34.821Z,3.47
2019-05-18T11:19:03.192Z,3.08
2019-05-18T11:21:31.426Z,3.37
2019-05-18T11:23:59.669Z,3.10
2019-05-18T11:26:28.021Z,3.40
2019-05-18T11:28:56.418Z,3.50
2019-05-18T11:32:00.829Z,3.17
2019-05-18T11:34:29.060Z,3.05
2019-05-18T11:37:03.133Z,3.50
2019-05-18T11:39:30.524Z,3.40
2019-05-18T11:41:58.761Z,2.75
2019-05-18T11:44:26.983Z,2.62
2019-05-18T11:47:03.991Z,3.70
2019-05-18T11:49:32.384Z,3.25
2019-05-18T11:52:00.687Z,3.33
2019-05-18T11:54:29.064Z,4.05
2019-05-18T11:56:57.407Z,3.30
2019-05-18T11:59:25.705Z,2.98
2019-05-18T12:01:53.953Z,3.58
2019-05-18T12:04:22.252Z,3.67
2019-05-18T12:06:50.497Z,3.40
2019-05-18T12:09:18.805Z,3.12
2019-05-18T12:11:47.179Z,2.70
2019-05-18T12:14:15.645Z,3.40
2019-05-18T12:16:53.164Z,2.98
2019-05-18T12:19:21.553Z,3.20
2019-05-18T12:21:49.936Z,2.87
2019-05-18T12:24:18.227Z,3.17
2019-05-18T12:26:46.624Z,3.12
2019-05-18T12:29:14.934Z,2.90
2019-05-18T12:31:43.268Z,3.00
2019-05-18T12:34:11.645Z,3.05
2019-05-18T12:36:39.954Z,2.80
2019-05-18T12:39:08.352Z,2.62
2019-05-18T12:42:00.364Z,3.10
2019-05-18T12:44:28.768Z,2.50
2019-05-18T12:46:57.187Z,3.12
2019-05-18T12:49:25.405Z,2.87
2019-05-18T12:51:53.627Z,3.02
2019-05-18T12:54:30.968Z,2.70
2019-05-18T12:56:51.928Z,2.62
2019-05-18T12:59:20.303Z,2.85
2019-05-18T13:01:48.678Z,3.02
2019-05-18T13:04:17.092Z,2.77
2019-05-18T13:06:45.464Z,3.02
2019-05-18T13:09:13.716Z,2.62
2019-05-18T13:11:41.943Z,2.72
2019-05-18T13:14:10.175Z,2.70
2019-05-18T13:16:38.409Z,2.87
2019-05-18T13:19:06.829Z,3.45
2019-05-18T13:21:35.146Z,2.70
2019-05-18T13:24:03.433Z,2.60
2019-05-18T13:26:31.736Z,2.30
2019-05-18T13:29:00.078Z,2.85
2019-05-18T13:31:28.381Z,2.87
2019-05-18T13:33:56.619Z,2.52
2019-05-18T13:36:24.927Z,2.92
2019-05-18T13:38:53.304Z,2.50
2019-05-18T13:41:21.758Z,2.47
2019-05-18T13:43:50.124Z,2.42
2019-05-18T13:46:18.460Z,2.20
2019-05-18T13:48:46.763Z,2.42
2019-05-18T13:51:15.074Z,2.75
2019-05-18T13:53:43.504Z,2.58
2019-05-18T13:56:11.740Z,3.10
2019-05-18T13:58:40.113Z,3.52
2019-05-18T14:01:08.448Z,3.20
2019-05-18T14:03:36.799Z,2.50
2019-05-18T14:06:05.342Z,2.40
2019-05-18T14:08:33.710Z,2.65
2019-05-18T14:11:02.063Z,2.50
2019-05-18T14:13:30.410Z,3.08
2019-05-18T14:15:58.846Z,2.33
2019-05-18T14:18:27.262Z,2.15
2019-05-18T14:20:55.549Z,2.45
2019-05-18T14:23:23.859Z,2.52
2019-05-18T14:25:52.240Z,2.83
2019-05-18T14:28:20.639Z,2.30
2019-05-18T14:30:48.980Z,2.40
2019-05-18T14:33:17.406Z,2.00
2019-05-18T14:35:45.677Z,2.98
2019-05-18T14:38:14.040Z,3.20
2019-05-18T14:40:42.306Z,2.70
2019-05-18T14:43:10.676Z,2.75
2019-05-18T14:45:39.195Z,2.72
2019-05-18T14:48:07.604Z,2.40
2019-05-18T14:50:35.890Z,2.10
2019-05-18T14:53:04.548Z,2.35
2019-05-18T14:55:34.092Z,2.90
2019-05-18T14:58:02.541Z,2.87
2019-05-18T15:00:30.804Z,2.77
2019-05-18T15:02:59.238Z,2.60
2019-05-18T15:05:27.606Z,2.75
2019-05-18T15:07:56.195Z,2.62
2019-05-18T15:10:24.629Z,2.52
2019-05-18T15:12:52.941Z,3.40
2019-05-18T15:15:21.306Z,6.25
2019-05-18T15:17:49.577Z,4.67
2019-05-18T15:20:18.015Z,2.60
2019-05-18T15:22:46.303Z,2.98
2019-05-18T15:25:14.692Z,2.10
2019-05-18T15:27:43.049Z,2.37
2019-05-18T15:30:11.838Z,2.77
2019-05-18T15:32:40.136Z,2.10
2019-05-18T15:35:08.656Z,2.15
2019-05-18T15:37:37.562Z,2.50
2019-05-18T15:40:06.517Z,2.25
2019-05-18T15:42:34.846Z,2.08
2019-05-18T15:45:04.365Z,2.00
2019-05-18T15:47:32.797Z,2.35
2019-05-18T15:50:01.062Z,1.92
2019-05-18T15:52:29.538Z,2.00
2019-05-18T15:54:57.860Z,1.98
2019-05-18T15:57:26.246Z,2.20
2019-05-18T15:59:54.705Z,2.45
2019-05-18T16:02:23.848Z,2.80
2019-05-18T16:04:52.328Z,1.90
2019-05-18T16:07:20.773Z,2.55
2019-05-18T16:09:49.151Z,2.47
2019-05-18T16:12:17.552Z,2.10
2019-05-18T16:14:45.927Z,2.12
2019-05-18T16:17:14.307Z,2.42
2019-05-18T16:19:42.637Z,2.10
2019-05-18T16:22:12.413Z,2.60
2019-05-18T16:24:40.791Z,2.15
2019-05-18T16:27:09.238Z,2.50
2019-05-18T16:29:37.579Z,2.10
2019-05-18T16:32:05.905Z,2.10
2019-05-18T16:34:34.302Z,2.30
2019-05-18T16:37:03.874Z,2.15
2019-05-18T16:39:32.323Z,2.00
2019-05-18T16:42:00.787Z,1.98
2019-05-18T16:44:29.199Z,2.20
2019-05-18T16:46:57.607Z,1.90
2019-05-18T16:49:25.945Z,2.22
2019-05-18T16:51:54.914Z,2.55
2019-05-18T16:54:23.283Z,2.92
2019-05-18T16:56:51.660Z,2.00
2019-05-18T16:59:20.089Z,2.30
2019-05-18T17:01:48.525Z,2.67
2019-05-18T17:04:17.392Z,1.85
2019-05-18T17:06:45.790Z,2.00
2019-05-18T17:09:14.223Z,1.75
2019-05-18T17:12:00.737Z,2.10
2019-05-18T17:14:31.231Z,1.92
2019-05-18T17:16:59.648Z,2.05
2019-05-18T17:19:28.079Z,1.92
2019-05-18T17:21:56.458Z,2.47
2019-05-18T17:24:24.840Z,2.30
2019-05-18T17:26:53.792Z,2.37
2019-05-18T17:29:22.305Z,2.45
2019-05-18T17:31:50.725Z,2.30
2019-05-18T17:34:19.206Z,2.00
2019-05-18T17:36:52.383Z,2.27
2019-05-18T17:39:19.057Z,2.25
2019-05-18T17:41:47.867Z,2.10
2019-05-18T17:44:17.879Z,1.85
2019-05-18T17:46:46.195Z,2.17
2019-05-18T17:49:25.848Z,2.17
2019-05-18T17:51:44.590Z,1.80
2019-05-18T17:54:14.104Z,1.95
2019-05-18T17:56:43.677Z,2.10
2019-05-18T17:59:12.062Z,2.83
2019-05-18T18:01:40.420Z,2.70
2019-05-18T18:04:09.380Z,2.30
2019-05-18T18:06:37.790Z,2.17
2019-05-18T18:09:07.269Z,2.30
2019-05-18T18:11:35.720Z,2.17
2019-05-18T18:14:04.719Z,2.65
2019-05-18T18:16:34.586Z,2.70
2019-05-18T18:19:05.583Z,2.37
2019-05-18T18:21:35.752Z,2.65
2019-05-18T18:24:04.094Z,2.17
2019-05-18T18:26:32.527Z,2.50
2019-05-18T18:29:04.048Z,2.70
2019-05-18T18:31:30.886Z,2.37
2019-05-18T18:33:59.203Z,2.90
2019-05-18T18:36:27.641Z,3.45
2019-05-18T18:38:56.067Z,2.42
2019-05-18T18:41:24.443Z,2.30
2019-05-18T18:43:52.805Z,2.50
2019-05-18T18:46:21.173Z,3.12
2019-05-18T18:48:49.474Z,3.52
2019-05-18T18:51:17.796Z,2.40
2019-05-18T18:53:47.081Z,2.58
2019-05-18T18:56:15.427Z,2.50
2019-05-18T18:58:43.897Z,2.70
2019-05-18T19:01:12.360Z,2.95
2019-05-18T19:03:40.675Z,3.35
2019-05-18T19:06:09.022Z,3.12
2019-05-18T19:08:37.483Z,2.85
2019-05-18T19:11:05.923Z,2.30
2019-05-18T19:13:34.513Z,2.45
2019-05-18T19:16:02.928Z,2.12
2019-05-18T19:18:31.332Z,2.00
2019-05-18T19:20:59.774Z,2.08
2019-05-18T19:23:28.206Z,2.22
2019-05-18T19:25:57.525Z,2.75
2019-05-18T19:28:26.001Z,2.55
2019-05-18T19:30:54.366Z,2.58
2019-05-18T19:33:22.695Z,1.90
2019-05-18T19:35:51.043Z,2.75
2019-05-18T19:38:19.418Z,2.52
2019-05-18T19:40:47.780Z,2.40
2019-05-18T19:43:16.150Z,2.42
2019-05-18T19:45:44.522Z,2.22
2019-05-18T19:48:12.812Z,1.95
2019-05-18T19:50:41.374Z,2.70
2019-05-18T19:53:09.748Z,2.47
2019-05-18T19:55:38.177Z,2.47
2019-05-18T19:58:08.780Z,2.42
2019-05-18T20:00:36.520Z,2.42
2019-05-18T20:03:06.326Z,2.55
2019-05-18T20:05:34.742Z,2.40
2019-05-18T20:08:03.106Z,2.58
2019-05-18T20:10:31.469Z,2.62
2019-05-18T20:12:59.781Z,2.52
2019-05-18T20:15:28.253Z,2.55
2019-05-18T20:17:57.705Z,2.92
2019-05-18T20:20:26.067Z,2.40
2019-05-18T20:22:54.685Z,2.50
2019-05-18T20:25:23.044Z,2.90
2019-05-18T20:27:52.139Z,2.50
2019-05-18T20:30:20.678Z,2.30
2019-05-18T20:32:49.055Z,2.40
2019-05-18T20:35:17.999Z,2.65
2019-05-18T20:37:46.413Z,2.33
2019-05-18T20:40:14.985Z,2.50
2019-05-18T20:42:43.341Z,2.50
2019-05-18T20:45:11.796Z,2.60
2019-05-18T20:47:40.161Z,2.27
2019-05-18T20:50:08.629Z,2.02
2019-05-18T20:52:36.984Z,2.58
2019-05-18T20:55:05.508Z,2.08
2019-05-18T20:57:33.876Z,2.65
2019-05-18T21:00:02.596Z,2.30
2019-05-18T21:02:32.188Z,2.70
2019-05-18T21:05:00.597Z,2.10
2019-05-18T21:07:29.049Z,2.52
2019-05-18T21:09:57.480Z,2.70
2019-05-18T21:12:25.839Z,2.25
2019-05-18T21:14:54.334Z,1.95
2019-05-18T21:17:22.753Z,2.00
2019-05-18T21:19:51.144Z,1.77
2019-05-18T21:22:20.090Z,2.00
2019-05-18T21:24:48.387Z,2.45
2019-05-18T21:27:16.867Z,2.37
2019-05-18T21:29:46.150Z,2.55
2019-05-18T21:32:14.513Z,2.00
2019-05-18T21:34:42.944Z,1.90
2019-05-18T21:37:11.277Z,1.95
2019-05-18T21:39:39.663Z,2.08
2019-05-18T21:42:08.069Z,1.90
2019-05-18T21:44:36.434Z,1.90
2019-05-18T21:47:04.796Z,2.45
2019-05-18T21:49:33.150Z,1.92
2019-05-18T21:52:01.587Z,1.92
2019-05-18T21:54:29.965Z,2.47
2019-05-18T21:56:58.394Z,2.05
2019-05-18T21:59:26.744Z,1.92
2019-05-18T22:01:55.097Z,2.37
2019-05-18T22:04:23.458Z,2.15
2019-05-18T22:06:51.930Z,2.10
2019-05-18T22:09:20.375Z,2.35
2019-05-18T22:11:48.718Z,2.15
2019-05-18T22:14:17.298Z,1.90
2019-05-18T22:16:45.805Z,2.52
2019-05-18T22:19:14.435Z,1.87
2019-05-18T22:21:42.725Z,2.27
2019-05-18T22:24:11.180Z,2.40
2019-05-18T22:26:39.639Z,2.17
2019-05-18T22:29:07.997Z,2.30
2019-05-18T22:31:37.212Z,2.08
2019-05-18T22:34:05.593Z,2.35
2019-05-18T22:36:33.869Z,2.35
2019-05-18T22:39:02.274Z,2.50
2019-05-18T22:41:30.627Z,2.27
2019-05-18T22:43:59.011Z,2.22
2019-05-18T22:46:27.459Z,2.58
2019-05-18T22:48:55.822Z,2.20
2019-05-18T22:51:24.292Z,1.82
2019-05-18T22:53:52.694Z,1.80
2019-05-18T22:56:21.064Z,1.80
2019-05-18T22:58:49.433Z,2.50
2019-05-18T23:01:17.821Z,1.92
2019-05-18T23:03:46.266Z,2.00
2019-05-18T23:06:14.630Z,1.87
2019-05-18T23:08:42.922Z,2.15
2019-05-18T23:11:11.318Z,1.98
2019-05-18T23:13:39.677Z,2.00
2019-05-18T23:16:08.050Z,2.22
2019-05-18T23:18:36.410Z,1.90
2019-05-18T23:21:04.778Z,2.08
2019-05-18T23:23:33.145Z,1.75
2019-05-18T23:26:01.438Z,2.15
2019-05-18T23:28:29.827Z,1.80
2019-05-18T23:30:58.260Z,2.30
2019-05-18T23:33:27.400Z,1.95
2019-05-18T23:35:55.794Z,2.05
2019-05-18T23:38:24.283Z,2.30
2019-05-18T23:40:52.711Z,1.95
2019-05-18T23:43:21.066Z,2.08
2019-05-18T23:45:49.473Z,2.60
2019-05-18T23:48:17.847Z,2.02
2019-05-18T23:50:46.234Z,1.95
2019-05-18T23:53:14.528Z,2.33
2019-05-18T23:55:42.977Z,2.02
2019-05-18T23:58:11.373Z,1.95
